Time;durP1;ratioP1;P1;durP2;ratioP2;P2;SDS_P1;SDS_P2;PMS_P1;PMS_P2;Temp;Humidity;BMP_temperature;BMP_pressure;BME280_temperature;BME280_humidity;BME280_pressure;Samples;Min_cycle;Max_cycle;Signal;HPM_P1;HPM_P2
2022/11/28 00:01:23;;;;;;;5.97;5.38;;;7.80;99.90;;;;;;6067964;23;90439;-75
2022/11/28 00:03:50;;;;;;;5.82;5.00;;;7.80;99.90;;;;;;6069611;23;88031;-75
2022/11/28 00:06:18;;;;;;;6.20;5.05;;;7.80;99.90;;;;;;6068454;23;106075;-75
2022/11/28 00:08:45;;;;;;;6.05;5.45;;;7.70;99.90;;;;;;6067643;23;94741;-75
2022/11/28 00:11:14;;;;;;;7.00;5.47;;;7.80;99.90;;;;;;6069961;23;88292;-74
2022/11/28 00:13:42;;;;;;;6.13;4.47;;;7.80;99.90;;;;;;6067988;23;87975;-75
2022/11/28 00:16:13;;;;;;;6.68;5.43;;;7.80;99.90;;;;;;6092396;23;88045;-75
2022/11/28 00:18:40;;;;;;;8.15;5.70;;;7.80;99.90;;;;;;6067304;23;89506;-75
2022/11/28 00:21:10;;;;;;;6.15;5.13;;;7.80;99.90;;;;;;6069406;23;88981;-75
2022/11/28 00:23:38;;;;;;;9.05;5.45;;;7.90;99.90;;;;;;6067343;23;89776;-75
2022/11/28 00:26:10;;;;;;;6.95;5.60;;;7.90;99.90;;;;;;6067622;23;89652;-74
2022/11/28 00:28:38;;;;;;;7.35;5.47;;;7.90;99.90;;;;;;6069272;23;88762;-74
2022/11/28 00:31:05;;;;;;;7.22;5.22;;;7.90;99.90;;;;;;6091474;23;102354;-74
2022/11/28 00:33:32;;;;;;;6.10;5.50;;;8.00;99.90;;;;;;6067425;23;89196;-75
2022/11/28 00:36:04;;;;;;;5.55;4.85;;;8.00;99.90;;;;;;6068250;23;88208;-74
2022/11/28 00:38:31;;;;;;;7.05;5.80;;;8.00;99.90;;;;;;6067560;23;89892;-74
2022/11/28 00:41:16;;;;;;;7.18;5.60;;;8.00;99.90;;;;;;6069381;23;88568;-74
2022/11/28 00:43:44;;;;;;;6.55;5.95;;;8.00;99.90;;;;;;6091519;23;89547;-74
2022/11/28 00:46:13;;;;;;;6.82;5.20;;;8.00;99.90;;;;;;6069444;23;88157;-75
2022/11/28 00:48:40;;;;;;;7.25;5.65;;;8.00;99.90;;;;;;6091819;23;91583;-75
2022/11/28 00:51:13;;;;;;;6.22;5.60;;;8.00;99.90;;;;;;6067569;23;89767;-74
2022/11/28 00:53:41;;;;;;;5.77;4.80;;;8.00;99.90;;;;;;6091896;23;88940;-74
2022/11/28 00:56:14;;;;;;;7.35;5.22;;;8.00;99.90;;;;;;6091938;23;88324;-74
2022/11/28 00:58:41;;;;;;;6.72;5.13;;;8.00;99.90;;;;;;6069146;23;88850;-74
2022/11/28 01:01:13;;;;;;;5.65;4.90;;;8.00;99.90;;;;;;6067846;23;90810;-74
2022/11/28 01:03:41;;;;;;;7.15;5.70;;;8.00;99.90;;;;;;6069187;23;87984;-75
2022/11/28 01:06:09;;;;;;;7.00;5.53;;;8.00;99.90;;;;;;6069438;23;88387;-75
2022/11/28 01:08:37;;;;;;;5.85;5.25;;;8.00;99.90;;;;;;6067726;23;108141;-74
2022/11/28 01:11:11;;;;;;;6.50;5.53;;;8.00;99.90;;;;;;6091626;23;91911;-74
2022/11/28 01:13:39;;;;;;;7.03;4.82;;;8.00;99.90;;;;;;6069182;23;88004;-74
2022/11/28 01:16:07;;;;;;;8.15;6.05;;;7.90;99.90;;;;;;6069324;23;88441;-74
2022/11/28 01:18:35;;;;;;;6.78;5.88;;;8.00;99.90;;;;;;6069147;23;88670;-75
2022/11/28 01:21:02;;;;;;;6.80;5.85;;;8.00;99.90;;;;;;6091771;23;91480;-75
2022/11/28 01:23:29;;;;;;;7.35;6.32;;;8.00;99.90;;;;;;6069039;23;87960;-74
2022/11/28 01:25:56;;;;;;;5.78;5.20;;;8.00;99.90;;;;;;6092573;23;88342;-74
2022/11/28 01:28:23;;;;;;;6.63;5.93;;;8.00;99.90;;;;;;6092080;23;88785;-74
2022/11/28 01:30:50;;;;;;;7.15;6.13;;;8.00;99.90;;;;;;6091720;23;91081;-75
2022/11/28 01:33:17;;;;;;;6.53;5.82;;;8.00;99.90;;;;;;6066678;23;88679;-74
2022/11/28 01:35:57;;;;;;;14.93;6.43;;;8.00;99.90;;;;;;6067379;23;88045;-74
2022/11/28 01:38:24;;;;;;;5.72;5.13;;;8.10;99.90;;;;;;6069123;23;88644;-75
2022/11/28 01:40:52;;;;;;;6.43;5.60;;;8.10;99.90;;;;;;6066974;23;93914;-74
2022/11/28 01:43:20;;;;;;;10.73;5.85;;;8.10;99.90;;;;;;6069350;23;88440;-74
2022/11/28 01:45:47;;;;;;;6.57;5.43;;;8.10;99.90;;;;;;6068699;23;91263;-74
2022/11/28 01:48:23;;;;;;;6.70;5.82;;;8.00;99.90;;;;;;6069028;23;88683;-74
2022/11/28 01:50:54;;;;;;;7.43;6.63;;;8.10;99.90;;;;;;6069220;23;88591;-74
2022/11/28 01:53:22;;;;;;;8.23;7.13;;;8.00;99.90;;;;;;6092145;23;89156;-73
2022/11/28 01:56:12;;;;;;;8.77;6.00;;;8.00;99.90;;;;;;6091822;23;88735;-73
2022/11/28 01:58:45;;;;;;;7.22;5.95;;;8.00;99.90;;;;;;6068372;23;89500;-73
2022/11/28 02:01:12;;;;;;;10.18;6.35;;;7.90;99.90;;;;;;6091987;23;90322;-74
2022/11/28 02:03:43;;;;;;;8.05;7.25;;;8.00;99.90;;;;;;6066956;23;89329;-74
2022/11/28 02:06:15;;;;;;;8.18;5.82;;;8.00;99.90;;;;;;6067401;23;91124;-73
2022/11/28 02:08:42;;;;;;;8.98;6.47;;;7.90;99.90;;;;;;6067192;23;88826;-73
2022/11/28 02:11:30;;;;;;;10.88;6.50;;;8.00;99.90;;;;;;6068956;23;88994;-73
2022/11/28 02:14:22;;;;;;;8.55;6.68;;;8.10;99.90;;;;;;6067048;23;87933;-73
2022/11/28 02:17:13;;;;;;;9.07;6.25;;;8.00;99.90;;;;;;6067442;23;94612;-73
2022/11/28 02:19:52;;;;;;;7.53;6.32;;;8.00;99.90;;;;;;6067064;23;91234;-73
2022/11/28 02:22:24;;;;;;;8.25;6.35;;;8.00;99.90;;;;;;6068887;23;88604;-73
2022/11/28 02:24:50;;;;;;;9.07;6.45;;;8.10;99.90;;;;;;6066759;23;88746;-73
2022/11/28 02:27:55;;;;;;;8.75;6.32;;;8.10;99.90;;;;;;6091550;23;94585;-73
2022/11/28 02:30:32;;;;;;;10.48;6.93;;;8.10;99.90;;;;;;6068421;23;89122;-73
2022/11/28 02:33:13;;;;;;;9.80;6.60;;;8.20;99.90;;;;;;6068346;23;88707;-73
2022/11/28 02:36:24;;;;;;;10.07;6.13;;;8.20;99.90;;;;;;6068852;23;88564;-73
2022/11/28 02:39:17;;;;;;;7.13;6.40;;;8.20;99.90;;;;;;6060654;23;88457;-73
2022/11/28 02:41:52;;;;;;;5.78;5.28;;;8.20;99.90;;;;;;6066984;23;88009;-73
2022/11/28 02:44:50;;;;;;;9.32;6.90;;;8.20;99.90;;;;;;6067552;23;91100;-73
2022/11/28 02:47:31;;;;;;;9.10;6.80;;;8.30;99.90;;;;;;6065682;23;87971;-73
2022/11/28 02:50:12;;;;;;;7.75;5.45;;;8.30;99.90;;;;;;6091306;23;88218;-73
2022/11/28 02:52:41;;;;;;;8.65;7.22;;;8.30;99.90;;;;;;6066376;23;90975;-73
2022/11/28 02:55:09;;;;;;;8.40;6.57;;;8.30;99.90;;;;;;6066600;23;90872;-74
2022/11/28 02:57:47;;;;;;;8.60;6.55;;;8.30;99.90;;;;;;6068518;23;87892;-73
2022/11/28 03:00:34;;;;;;;7.82;5.88;;;8.40;99.90;;;;;;6091479;23;88293;-73
2022/11/28 03:03:04;;;;;;;8.63;6.22;;;8.40;99.90;;;;;;6091173;23;89620;-73
2022/11/28 03:05:57;;;;;;;6.85;5.72;;;8.40;99.90;;;;;;6068486;23;88607;-73
2022/11/28 03:08:36;;;;;;;11.10;6.55;;;8.40;99.90;;;;;;6091645;23;87967;-73
2022/11/28 03:11:09;;;;;;;6.60;5.38;;;8.40;99.90;;;;;;6068739;23;87412;-73
2022/11/28 03:13:51;;;;;;;10.60;6.68;;;8.40;99.90;;;;;;6066859;23;91208;-74
2022/11/28 03:16:29;;;;;;;9.98;6.10;;;8.40;99.90;;;;;;6066932;23;90959;-73
2022/11/28 03:19:31;;;;;;;9.23;6.47;;;8.40;99.90;;;;;;6067768;23;88645;-73
2022/11/28 03:22:09;;;;;;;11.57;6.75;;;8.40;99.90;;;;;;6034563;23;88236;-73
2022/11/28 03:25:09;;;;;;;10.02;7.20;;;8.40;99.90;;;;;;6068505;23;88778;-73
2022/11/28 03:27:48;;;;;;;10.13;6.68;;;8.40;99.90;;;;;;6051772;23;91356;-73
2022/11/28 03:30:28;;;;;;;7.90;6.22;;;8.40;99.90;;;;;;6068272;23;87980;-73
2022/11/28 03:32:59;;;;;;;8.80;6.03;;;8.40;99.90;;;;;;6091798;23;88075;-73
2022/11/28 03:35:33;;;;;;;8.43;5.93;;;8.40;99.90;;;;;;6043510;23;91437;-73
2022/11/28 03:38:05;;;;;;;8.00;6.63;;;8.40;99.90;;;;;;6092926;23;88559;-73
2022/11/28 03:40:39;;;;;;;9.02;6.38;;;8.40;99.90;;;;;;6092732;23;89437;-73
2022/11/28 03:43:10;;;;;;;8.95;7.22;;;8.40;99.90;;;;;;6069376;23;88169;-73
2022/11/28 03:45:42;;;;;;;8.70;6.55;;;8.40;99.90;;;;;;6067696;23;91898;-73
2022/11/28 03:48:25;;;;;;;8.68;6.70;;;8.40;99.90;;;;;;6067590;23;90797;-74
2022/11/28 03:51:24;;;;;;;7.80;6.55;;;8.50;99.90;;;;;;6069504;23;87977;-73
2022/11/28 03:54:25;;;;;;;8.95;6.43;;;8.50;99.90;;;;;;6049404;23;91570;-73
2022/11/28 03:57:15;;;;;;;6.88;5.88;;;8.40;99.90;;;;;;6069263;23;88884;-73
2022/11/28 03:59:45;;;;;;;7.38;6.47;;;8.40;99.90;;;;;;6068138;23;88610;-74
2022/11/28 04:02:31;;;;;;;8.25;7.07;;;8.50;99.90;;;;;;6069556;23;91919;-74
2022/11/28 04:05:06;;;;;;;9.23;6.60;;;8.60;99.90;;;;;;6069950;23;88180;-73
2022/11/28 04:07:39;;;;;;;8.90;6.95;;;8.50;99.90;;;;;;6068010;23;91379;-73
2022/11/28 04:10:31;;;;;;;9.63;7.70;;;8.50;99.90;;;;;;6067756;23;88441;-73
2022/11/28 04:13:22;;;;;;;7.80;6.10;;;8.60;99.90;;;;;;6068933;23;88704;-73
2022/11/28 04:15:55;;;;;;;13.30;7.28;;;8.60;99.90;;;;;;6067752;23;87949;-73
2022/11/28 04:18:28;;;;;;;9.48;7.78;;;8.50;99.90;;;;;;6069411;23;88815;-73
2022/11/28 04:21:01;;;;;;;9.38;7.93;;;8.50;99.90;;;;;;6069299;23;88583;-73
2022/11/28 04:23:30;;;;;;;8.95;6.95;;;8.50;99.90;;;;;;6068002;23;87975;-73
2022/11/28 04:26:04;;;;;;;10.85;8.00;;;8.50;99.90;;;;;;6091695;23;91103;-74
2022/11/28 04:28:33;;;;;;;10.15;7.38;;;8.50;99.90;;;;;;6069522;23;88632;-74
2022/11/28 04:31:04;;;;;;;11.75;8.57;;;8.50;99.90;;;;;;6068058;23;88657;-74
2022/11/28 04:33:36;;;;;;;9.15;7.75;;;8.50;99.90;;;;;;6067768;23;87977;-73
2022/11/28 04:36:04;;;;;;;10.50;8.68;;;8.40;99.90;;;;;;6069047;23;88259;-74
2022/11/28 04:38:33;;;;;;;14.35;10.30;;;8.40;99.90;;;;;;6068780;23;89155;-74
2022/11/28 04:41:23;;;;;;;11.88;9.88;;;8.40;99.90;;;;;;6066650;23;89140;-73
2022/11/28 04:43:57;;;;;;;13.48;9.80;;;8.50;99.90;;;;;;6057595;23;91904;-73
2022/11/28 04:46:31;;;;;;;15.88;9.82;;;8.40;99.90;;;;;;6069445;23;88372;-74
2022/11/28 04:48:58;;;;;;;14.50;10.93;;;8.40;99.90;;;;;;6091963;23;89830;-74
2022/11/28 04:51:33;;;;;;;18.13;13.52;;;8.40;99.90;;;;;;6066877;23;89299;-74
2022/11/28 04:54:08;;;;;;;22.95;20.60;;;8.40;99.90;;;;;;6091140;23;89934;-74
2022/11/28 04:56:47;;;;;;;27.48;24.65;;;8.40;99.90;;;;;;6067234;23;88495;-74
2022/11/28 04:59:15;;;;;;;14.60;12.93;;;8.40;99.90;;;;;;6068250;23;88732;-74
2022/11/28 05:01:44;;;;;;;19.13;15.55;;;8.30;99.90;;;;;;6068404;23;88425;-74
2022/11/28 05:04:13;;;;;;;18.10;14.57;;;8.30;99.90;;;;;;6090932;23;89294;-74
2022/11/28 05:06:40;;;;;;;17.75;15.02;;;8.30;99.90;;;;;;6066854;23;88344;-74
2022/11/28 05:09:09;;;;;;;24.48;16.38;;;8.30;99.90;;;;;;6066334;23;89659;-74
2022/11/28 05:11:36;;;;;;;20.52;16.55;;;8.30;99.90;;;;;;6091105;23;91859;-74
2022/11/28 05:14:03;;;;;;;23.35;20.63;;;8.30;99.90;;;;;;6066593;23;89019;-74
2022/11/28 05:16:30;;;;;;;20.17;15.27;;;8.30;99.90;;;;;;6091284;23;91018;-74
2022/11/28 05:18:57;;;;;;;19.77;16.08;;;8.40;99.90;;;;;;6066389;23;88962;-74
2022/11/28 05:21:24;;;;;;;21.83;17.58;;;8.40;99.90;;;;;;6066934;23;91839;-74
2022/11/28 05:23:51;;;;;;;18.80;14.55;;;8.40;99.90;;;;;;6068310;23;88757;-74
2022/11/28 05:26:19;;;;;;;20.00;14.57;;;8.40;99.90;;;;;;6090916;23;91011;-74
2022/11/28 05:28:48;;;;;;;21.20;16.35;;;8.50;99.90;;;;;;6067960;23;89649;-74
2022/11/28 05:31:18;;;;;;;20.50;16.88;;;8.50;99.90;;;;;;6068046;23;89149;-74
2022/11/28 05:33:45;;;;;;;19.63;13.98;;;8.50;99.90;;;;;;6066015;23;95453;-74
2022/11/28 05:36:13;;;;;;;16.65;13.40;;;8.60;99.90;;;;;;6066308;23;89187;-74
2022/11/28 05:38:41;;;;;;;23.02;15.55;;;8.60;99.90;;;;;;6041510;23;105092;-74
2022/11/28 05:41:09;;;;;;;20.85;16.13;;;8.60;99.90;;;;;;6090559;23;90290;-74
2022/11/28 05:43:36;;;;;;;24.63;17.15;;;8.70;99.90;;;;;;6042193;23;89891;-74
2022/11/28 05:46:05;;;;;;;22.30;17.73;;;8.70;99.90;;;;;;6042131;23;90815;-74
2022/11/28 05:48:32;;;;;;;23.67;20.17;;;8.70;99.90;;;;;;6067475;23;88511;-74
2022/11/28 05:50:59;;;;;;;25.50;18.88;;;8.70;99.90;;;;;;6068094;23;88452;-74
2022/11/28 05:53:26;;;;;;;31.23;26.63;;;8.80;99.90;;;;;;6066576;23;89293;-74
2022/11/28 05:55:53;;;;;;;23.67;19.73;;;8.80;99.90;;;;;;6068130;23;88629;-74
2022/11/28 05:58:20;;;;;;;24.65;19.90;;;8.80;99.90;;;;;;6066271;23;88563;-74
2022/11/28 06:00:47;;;;;;;22.27;17.48;;;8.90;99.90;;;;;;6066589;23;89341;-74
2022/11/28 06:03:14;;;;;;;25.45;19.33;;;8.90;99.90;;;;;;6067784;23;88828;-74
2022/11/28 06:05:42;;;;;;;24.95;18.83;;;8.90;99.90;;;;;;6068181;23;88460;-74
2022/11/28 06:08:11;;;;;;;20.60;16.60;;;8.90;99.90;;;;;;6067688;23;88831;-74
2022/11/28 06:10:39;;;;;;;25.38;18.42;;;8.90;99.90;;;;;;6066791;23;89489;-74
2022/11/28 06:13:06;;;;;;;20.85;16.60;;;8.90;99.90;;;;;;6066121;23;88813;-74
2022/11/28 06:15:33;;;;;;;21.67;18.55;;;8.90;99.90;;;;;;6066039;23;97880;-74
2022/11/28 06:18:03;;;;;;;21.58;16.88;;;8.90;99.90;;;;;;6067626;23;89667;-73
2022/11/28 06:20:30;;;;;;;21.52;17.38;;;8.90;99.90;;;;;;6066305;23;91811;-74
2022/11/28 06:22:57;;;;;;;21.42;18.27;;;9.00;99.90;;;;;;6067965;23;88777;-74
2022/11/28 06:25:24;;;;;;;23.15;17.75;;;9.00;99.90;;;;;;6067682;23;88396;-74
2022/11/28 06:27:51;;;;;;;23.48;18.05;;;9.00;99.90;;;;;;6067823;23;88926;-74
2022/11/28 06:30:18;;;;;;;20.92;17.52;;;9.00;99.90;;;;;;6066103;23;88504;-73
2022/11/28 06:32:45;;;;;;;20.73;17.27;;;9.10;99.90;;;;;;6067377;23;88900;-74
2022/11/28 06:35:12;;;;;;;22.23;17.27;;;9.10;99.90;;;;;;6066397;23;88501;-74
2022/11/28 06:37:39;;;;;;;24.30;18.08;;;9.10;99.90;;;;;;6066079;23;91557;-74
2022/11/28 06:40:06;;;;;;;25.90;20.70;;;9.10;99.90;;;;;;6066525;23;91995;-73
2022/11/28 06:42:35;;;;;;;18.98;16.98;;;9.20;99.90;;;;;;6067488;23;88853;-74
2022/11/28 06:45:06;;;;;;;18.88;15.23;;;9.20;99.90;;;;;;6040369;23;99389;-74
2022/11/28 06:47:33;;;;;;;18.55;16.65;;;9.20;99.90;;;;;;6067477;23;89280;-74
2022/11/28 06:50:00;;;;;;;17.90;16.00;;;9.20;99.90;;;;;;6090485;23;92117;-74
2022/11/28 06:52:27;;;;;;;19.25;17.27;;;9.30;99.90;;;;;;6065949;23;88782;-74
2022/11/28 06:54:54;;;;;;;20.27;17.08;;;9.30;99.90;;;;;;6067693;23;88436;-73
2022/11/28 06:57:21;;;;;;;19.55;17.20;;;9.30;99.90;;;;;;6065983;23;88745;-73
2022/11/28 06:59:49;;;;;;;19.15;15.82;;;9.30;99.90;;;;;;6066378;23;91999;-73
2022/11/28 07:02:16;;;;;;;15.43;13.75;;;9.30;99.90;;;;;;6068759;23;89039;-74
2022/11/28 07:04:43;;;;;;;17.40;14.52;;;9.40;99.90;;;;;;6067006;23;89180;-74
2022/11/28 07:07:10;;;;;;;17.52;15.40;;;9.40;99.90;;;;;;6091403;23;92319;-74
2022/11/28 07:09:42;;;;;;;20.35;18.15;;;9.40;99.90;;;;;;6067486;23;88305;-74
2022/11/28 07:12:09;;;;;;;34.67;27.15;;;9.50;99.90;;;;;;6091587;23;91505;-73
2022/11/28 07:14:37;;;;;;;20.92;16.50;;;9.50;99.90;;;;;;6067028;23;88498;-73
2022/11/28 07:17:04;;;;;;;23.58;21.17;;;9.50;99.90;;;;;;6067035;23;89681;-73
2022/11/28 07:19:31;;;;;;;19.17;16.45;;;9.50;99.90;;;;;;6068419;23;88343;-73
2022/11/28 07:21:57;;;;;;;27.30;24.58;;;9.50;99.90;;;;;;6067306;23;88813;-73
2022/11/28 07:24:25;;;;;;;89.15;79.43;;;9.50;99.90;;;;;;6068798;23;88922;-74
2022/11/28 07:26:52;;;;;;;19.38;17.30;;;9.50;99.90;;;;;;6090906;23;105546;-74
2022/11/28 07:29:19;;;;;;;21.00;18.90;;;9.50;99.90;;;;;;6042127;23;91909;-73
2022/11/28 07:31:46;;;;;;;17.45;15.63;;;9.50;99.90;;;;;;6068462;23;88712;-73
2022/11/28 07:34:13;;;;;;;19.38;16.75;;;9.50;99.90;;;;;;6091233;23;90858;-73
2022/11/28 07:36:39;;;;;;;17.60;15.80;;;9.60;99.90;;;;;;6066751;23;88662;-73
2022/11/28 07:39:10;;;;;;;17.33;15.52;;;9.50;99.90;;;;;;6068573;23;89369;-73
2022/11/28 07:41:37;;;;;;;17.75;14.70;;;9.50;99.90;;;;;;6068654;23;88884;-73
2022/11/28 07:44:04;;;;;;;15.20;13.60;;;9.60;99.90;;;;;;6067182;23;88451;-73
2022/11/28 07:46:32;;;;;;;12.35;10.35;;;9.60;99.90;;;;;;6068570;23;89079;-73
2022/11/28 07:49:00;;;;;;;14.63;13.02;;;9.60;99.90;;;;;;6042877;23;92054;-74
2022/11/28 07:51:30;;;;;;;14.02;11.75;;;9.60;99.90;;;;;;6091072;23;91544;-74
2022/11/28 07:53:57;;;;;;;14.48;12.98;;;9.60;99.90;;;;;;6068632;23;88784;-74
2022/11/28 07:56:28;;;;;;;14.45;12.05;;;9.60;99.90;;;;;;6068263;23;89278;-74
2022/11/28 07:59:06;;;;;;;12.45;11.25;;;9.60;99.90;;;;;;6068773;23;89431;-74
2022/11/28 08:01:35;;;;;;;15.88;12.57;;;9.60;99.90;;;;;;6068290;23;88375;-74
2022/11/28 08:04:05;;;;;;;15.57;12.15;;;9.60;99.90;;;;;;6068124;23;101548;-74
2022/11/28 08:06:37;;;;;;;15.63;12.77;;;9.60;99.90;;;;;;6068350;23;88894;-74
2022/11/28 08:09:05;;;;;;;14.50;12.23;;;9.70;99.90;;;;;;6068581;23;89258;-74
2022/11/28 08:11:33;;;;;;;15.88;12.77;;;9.70;99.90;;;;;;6067879;23;88835;-76
2022/11/28 08:14:01;;;;;;;19.75;17.60;;;9.70;99.90;;;;;;6091595;23;90962;-76
2022/11/28 08:16:28;;;;;;;60.53;54.08;;;9.70;99.90;;;;;;6068272;23;88835;-76
2022/11/28 08:18:56;;;;;;;70.72;42.83;;;9.80;99.90;;;;;;6068428;23;89340;-76
2022/11/28 08:21:25;;;;;;;29.25;24.20;;;9.80;99.90;;;;;;6091004;23;89205;-76
2022/11/28 08:23:54;;;;;;;14.20;12.80;;;9.80;99.90;;;;;;6068804;23;88853;-76
2022/11/28 08:26:23;;;;;;;14.32;12.82;;;9.80;99.90;;;;;;6066944;23;88620;-76
2022/11/28 08:28:54;;;;;;;16.15;12.98;;;9.80;99.90;;;;;;6067141;23;89350;-76
2022/11/28 08:31:24;;;;;;;23.02;20.45;;;9.80;99.90;;;;;;6065617;23;91625;-76
2022/11/28 08:33:53;;;;;;;15.07;13.55;;;9.80;99.90;;;;;;6068224;23;88493;-76
2022/11/28 08:36:21;;;;;;;18.83;16.92;;;9.80;99.90;;;;;;6088537;23;95643;-76
2022/11/28 08:38:48;;;;;;;22.70;20.27;;;9.80;99.90;;;;;;6065471;23;99210;-76
2022/11/28 08:41:29;;;;;;;22.08;19.75;;;9.80;99.90;;;;;;6085987;23;92338;-76
2022/11/28 08:43:56;;;;;;;16.70;14.90;;;9.80;99.90;;;;;;6065605;23;99155;-76
2022/11/28 08:46:23;;;;;;;15.85;14.15;;;9.80;99.90;;;;;;6038523;23;96738;-76
2022/11/28 08:48:51;;;;;;;18.92;16.90;;;9.80;99.90;;;;;;6065504;23;95373;-76
2022/11/28 08:51:24;;;;;;;19.85;17.75;;;9.80;99.90;;;;;;6088746;23;92586;-76
2022/11/28 08:53:52;;;;;;;31.63;28.30;;;9.80;99.90;;;;;;6064239;23;92403;-77
2022/11/28 08:56:25;;;;;;;18.77;16.88;;;9.80;99.90;;;;;;6064468;23;93125;-77
2022/11/28 08:58:51;;;;;;;16.95;15.05;;;9.80;99.90;;;;;;6065396;23;93013;-77
2022/11/28 09:01:24;;;;;;;18.67;14.30;;;9.80;99.90;;;;;;6065943;23;92287;-77
2022/11/28 09:03:52;;;;;;;18.38;14.73;;;9.90;99.90;;;;;;6066199;23;91632;-77
2022/11/28 09:06:21;;;;;;;17.30;15.45;;;9.90;99.90;;;;;;6088606;23;95532;-77
2022/11/28 09:08:49;;;;;;;17.42;15.65;;;9.90;99.90;;;;;;6065478;23;93001;-77
2022/11/28 09:11:19;;;;;;;85.28;76.63;;;9.90;99.90;;;;;;6087339;23;94816;-77
2022/11/28 09:13:46;;;;;;;19.15;17.13;;;9.90;99.90;;;;;;6065710;23;92772;-77
2022/11/28 09:16:13;;;;;;;24.77;22.13;;;9.90;99.90;;;;;;6088501;23;95813;-77
2022/11/28 09:18:40;;;;;;;20.02;17.77;;;9.90;99.90;;;;;;6063116;23;108338;-76
2022/11/28 09:21:09;;;;;;;19.70;17.58;;;10.00;99.90;;;;;;6065860;23;92421;-76
2022/11/28 09:23:39;;;;;;;23.88;21.52;;;10.00;99.90;;;;;;6065769;23;92372;-76
2022/11/28 09:26:12;;;;;;;24.08;21.75;;;10.00;99.90;;;;;;6088778;23;94831;-77
2022/11/28 09:28:39;;;;;;;19.05;16.08;;;10.00;99.90;;;;;;6064206;23;95944;-77
2022/11/28 09:31:07;;;;;;;17.58;15.02;;;10.00;99.90;;;;;;6064248;23;92527;-77
2022/11/28 09:33:35;;;;;;;15.15;13.05;;;10.00;99.90;;;;;;6063741;23;93132;-76
2022/11/28 09:36:09;;;;;;;18.67;15.25;;;10.00;99.90;;;;;;6038104;23;98159;-77
2022/11/28 09:38:37;;;;;;;15.48;13.35;;;10.00;99.90;;;;;;6065192;23;95412;-77
2022/11/28 09:41:21;;;;;;;19.50;14.05;;;10.00;99.90;;;;;;6065842;23;92822;-77
2022/11/28 09:43:49;;;;;;;15.48;13.75;;;10.00;99.90;;;;;;6065671;23;92323;-77
2022/11/28 09:46:28;;;;;;;16.55;14.70;;;10.00;99.90;;;;;;6064163;23;93082;-77
2022/11/28 09:48:59;;;;;;;73.10;65.15;;;10.00;99.90;;;;;;6063909;23;93018;-77
2022/11/28 09:51:35;;;;;;;36.28;32.83;;;10.00;99.90;;;;;;6065762;23;92401;-77
2022/11/28 09:54:08;;;;;;;30.58;27.73;;;10.10;99.90;;;;;;6066191;23;91630;-77
2022/11/28 09:56:34;;;;;;;28.60;25.98;;;10.00;99.90;;;;;;6088383;23;92516;-77
2022/11/28 09:59:02;;;;;;;20.67;18.67;;;10.00;99.90;;;;;;6063879;23;94246;-77
2022/11/28 10:02:04;;;;;;;15.05;12.95;;;10.00;99.90;;;;;;6062665;23;94767;-76
2022/11/28 10:04:54;;;;;;;13.68;12.13;;;10.10;99.90;;;;;;6064020;23;92389;-77
2022/11/28 10:07:51;;;;;;;15.43;12.32;;;10.10;99.90;;;;;;6065440;23;93404;-77
2022/11/28 10:10:39;;;;;;;15.68;13.68;;;10.00;99.90;;;;;;6088157;23;94022;-77
2022/11/28 10:13:19;;;;;;;14.90;12.35;;;10.00;99.90;;;;;;6065840;23;92928;-77
2022/11/28 10:15:52;;;;;;;14.15;12.35;;;10.10;99.90;;;;;;6065316;23;92286;-77
2022/11/28 10:18:32;;;;;;;15.73;12.17;;;10.20;99.90;;;;;;6039512;23;95013;-77
2022/11/28 10:21:07;;;;;;;15.88;13.73;;;10.20;99.90;;;;;;6088655;23;95820;-77
2022/11/28 10:23:41;;;;;;;14.48;12.60;;;10.20;99.90;;;;;;6064039;23;92674;-77
2022/11/28 10:26:15;;;;;;;13.48;12.05;;;10.20;99.90;;;;;;6065550;23;92309;-77
2022/11/28 10:28:47;;;;;;;13.48;12.05;;;10.30;99.90;;;;;;6086440;23;96644;-77
2022/11/28 10:31:32;;;;;;;14.23;12.75;;;10.30;99.90;;;;;;6088050;23;95289;-77
2022/11/28 10:34:10;;;;;;;19.63;17.55;;;10.40;99.90;;;;;;6087197;23;92483;-77
2022/11/28 10:37:03;;;;;;;14.32;12.77;;;10.40;99.90;;;;;;6065511;23;92295;-77
2022/11/28 10:39:31;;;;;;;11.95;10.65;;;10.40;99.90;;;;;;6037013;23;93684;-77
2022/11/28 10:42:10;;;;;;;14.05;11.18;;;10.40;99.90;;;;;;6064898;23;92957;-77
2022/11/28 10:44:55;;;;;;;12.77;11.48;;;10.40;99.90;;;;;;6063786;23;92432;-77
2022/11/28 10:47:43;;;;;;;12.07;10.43;;;10.50;99.90;;;;;;6065999;23;92252;-77
2022/11/28 10:50:29;;;;;;;12.35;10.95;;;10.50;99.90;;;;;;6065216;23;93285;-77
2022/11/28 10:53:26;;;;;;;11.73;10.52;;;10.50;99.90;;;;;;6064899;23;92953;-77
2022/11/28 10:56:05;;;;;;;10.27;9.32;;;10.60;99.90;;;;;;6061664;23;94784;-77
2022/11/28 10:59:07;;;;;;;9.70;8.73;;;10.60;99.90;;;;;;6064567;23;92394;-77
2022/11/28 11:01:38;;;;;;;11.40;10.30;;;10.60;99.90;;;;;;6064201;23;92913;-77
2022/11/28 11:04:11;;;;;;;10.63;9.52;;;10.50;99.90;;;;;;6087784;23;95968;-77
2022/11/28 11:06:38;;;;;;;11.10;10.00;;;10.50;99.90;;;;;;6066058;23;93074;-77
2022/11/28 11:09:13;;;;;;;10.35;9.25;;;10.50;99.90;;;;;;6065328;23;92891;-77
2022/11/28 11:11:56;;;;;;;11.40;10.23;;;10.50;99.90;;;;;;6064078;23;93206;-77
2022/11/28 11:14:41;;;;;;;43.28;28.98;;;10.60;99.90;;;;;;6063850;23;93065;-77
2022/11/28 11:17:33;;;;;;;174.55;73.90;;;10.50;99.90;;;;;;6087758;23;92411;-77
2022/11/28 11:20:17;;;;;;;91.57;64.43;;;10.50;99.90;;;;;;6064861;23;92940;-76
2022/11/28 11:22:54;;;;;;;24.65;22.38;;;10.60;99.90;;;;;;6063383;23;95614;-76
2022/11/28 11:25:24;;;;;;;14.32;12.95;;;10.60;99.90;;;;;;6061748;23;95447;-76
2022/11/28 11:27:56;;;;;;;16.85;15.40;;;10.50;99.90;;;;;;6064692;23;92308;-77
2022/11/28 11:30:34;;;;;;;13.13;11.77;;;10.50;99.90;;;;;;6064884;23;92394;-76
2022/11/28 11:33:04;;;;;;;12.13;10.90;;;10.60;99.90;;;;;;6057744;23;93261;-76
2022/11/28 11:35:43;;;;;;;11.55;10.57;;;10.50;99.90;;;;;;6058442;23;93116;-77
2022/11/28 11:38:19;;;;;;;10.82;9.73;;;10.60;99.90;;;;;;6063068;23;92369;-77
2022/11/28 11:40:48;;;;;;;11.93;10.73;;;10.60;99.90;;;;;;6064221;23;91656;-77
2022/11/28 11:43:31;;;;;;;11.88;10.25;;;10.50;99.90;;;;;;6064367;23;93640;-77
2022/11/28 11:46:10;;;;;;;12.43;11.23;;;10.60;99.90;;;;;;6062894;23;92884;-77
2022/11/28 11:48:57;;;;;;;11.43;10.02;;;10.60;99.90;;;;;;6087627;23;94900;-77
2022/11/28 11:51:25;;;;;;;10.93;9.93;;;10.60;99.90;;;;;;6064735;23;92402;-77
2022/11/28 11:54:04;;;;;;;12.20;11.05;;;10.60;99.90;;;;;;6065319;23;93246;-77
2022/11/28 11:56:36;;;;;;;12.48;11.27;;;10.70;99.90;;;;;;6088840;23;95888;-77
2022/11/28 11:59:15;;;;;;;11.73;10.63;;;10.60;99.90;;;;;;6088789;23;92441;-77
2022/11/28 12:01:44;;;;;;;12.05;10.85;;;10.60;99.90;;;;;;6089156;23;92394;-77
2022/11/28 12:04:20;;;;;;;12.98;11.68;;;10.60;99.90;;;;;;6064198;23;93240;-77
2022/11/28 12:07:22;;;;;;;11.50;10.40;;;10.70;99.90;;;;;;6085281;23;92752;-77
2022/11/28 12:09:52;;;;;;;11.80;10.60;;;10.70;99.90;;;;;;6066261;23;92383;-77
2022/11/28 12:12:27;;;;;;;13.25;12.02;;;10.70;99.90;;;;;;6088771;23;92481;-77
2022/11/28 12:14:55;;;;;;;12.30;11.23;;;10.80;99.90;;;;;;6064475;23;95483;-77
2022/11/28 12:17:22;;;;;;;12.45;11.20;;;10.80;99.90;;;;;;6088378;23;96444;-77
2022/11/28 12:20:45;;;;;;;12.43;11.23;;;10.80;99.90;;;;;;6065805;23;92452;-77
2022/11/28 12:23:35;;;;;;;12.82;11.60;;;10.90;99.90;;;;;;6065941;23;92440;-77
2022/11/28 12:26:24;;;;;;;12.27;11.18;;;10.80;99.90;;;;;;6056422;23;95911;-75
2022/11/28 12:28:53;;;;;;;12.70;11.48;;;10.80;99.90;;;;;;6064420;23;93050;-74
2022/11/28 12:31:38;;;;;;;12.27;11.07;;;10.80;99.90;;;;;;6065803;23;92296;-74
2022/11/28 12:34:24;;;;;;;12.48;11.20;;;10.90;99.90;;;;;;6065855;23;91561;-74
2022/11/28 12:36:57;;;;;;;13.05;11.43;;;10.80;99.90;;;;;;6065913;23;93211;-74
2022/11/28 12:39:43;;;;;;;12.32;11.15;;;10.80;99.90;;;;;;6065535;23;93010;-74
2022/11/28 12:42:28;;;;;;;13.75;12.35;;;10.90;99.90;;;;;;6064461;23;95482;-74
2022/11/28 12:45:20;;;;;;;14.70;12.57;;;10.80;99.90;;;;;;6064387;23;92539;-74
2022/11/28 12:48:11;;;;;;;14.30;12.93;;;10.90;99.90;;;;;;6088767;23;93182;-74
2022/11/28 12:50:56;;;;;;;13.85;12.50;;;10.90;99.90;;;;;;6065812;23;92903;-74
2022/11/28 12:53:34;;;;;;;13.63;12.32;;;10.90;99.90;;;;;;6088570;23;92861;-74
2022/11/28 12:56:10;;;;;;;14.32;12.93;;;10.90;99.90;;;;;;6064571;23;93092;-74
2022/11/28 12:59:01;;;;;;;13.98;12.57;;;10.90;99.90;;;;;;6065743;23;93259;-74
2022/11/28 13:01:43;;;;;;;15.10;13.40;;;10.90;99.90;;;;;;6064514;23;95695;-74
2022/11/28 13:04:39;;;;;;;13.35;12.02;;;10.90;99.90;;;;;;6065777;23;92339;-74
2022/11/28 13:07:38;;;;;;;14.30;12.90;;;10.90;99.90;;;;;;6065761;23;92286;-74
2022/11/28 13:10:30;;;;;;;14.60;13.20;;;10.90;99.90;;;;;;6064072;23;95556;-74
2022/11/28 13:13:12;;;;;;;14.20;12.75;;;10.90;99.90;;;;;;6065680;23;95574;-74
2022/11/28 13:16:15;;;;;;;13.50;12.20;;;10.90;99.90;;;;;;6065932;23;92365;-74